createdAt,value
2024-03-26T00:00:03.998Z,6.10
2024-03-26T00:01:03.974Z,6.20
2024-03-26T00:02:03.961Z,6.30
2024-03-26T00:03:03.960Z,5.90
2024-03-26T00:04:03.940Z,6.20
2024-03-26T00:05:03.983Z,6.10
2024-03-26T00:06:03.921Z,6.50
2024-03-26T00:07:03.918Z,6.10
2024-03-26T00:08:03.898Z,6.00
2024-03-26T00:09:03.903Z,6.00
2024-03-26T00:10:03.883Z,6.30
2024-03-26T00:11:03.896Z,6.60
2024-03-26T00:12:03.876Z,5.80
2024-03-26T00:13:03.860Z,6.20
2024-03-26T00:14:03.866Z,6.10
2024-03-26T00:15:03.822Z,6.80
2024-03-26T00:16:03.822Z,6.20
2024-03-26T00:17:03.828Z,5.90
2024-03-26T00:18:03.798Z,6.30
2024-03-26T00:19:03.788Z,6.10
2024-03-26T00:20:03.786Z,6.60
2024-03-26T00:21:03.770Z,6.10
2024-03-26T00:22:03.748Z,6.20
2024-03-26T00:23:03.780Z,6.20
2024-03-26T00:24:03.727Z,6.10
2024-03-26T00:25:03.746Z,6.20
2024-03-26T00:26:03.729Z,6.50
2024-03-26T00:27:03.697Z,6.30
2024-03-26T00:28:03.719Z,6.00
2024-03-26T00:29:03.712Z,5.90
2024-03-26T00:30:03.693Z,6.00
2024-03-26T00:31:03.677Z,6.60
2024-03-26T00:32:03.654Z,6.10
2024-03-26T00:33:03.669Z,5.80
2024-03-26T00:34:03.647Z,6.10
2024-03-26T00:35:03.676Z,6.10
2024-03-26T00:36:03.612Z,5.80
2024-03-26T00:37:03.607Z,5.70
2024-03-26T00:38:03.600Z,6.10
2024-03-26T00:39:03.584Z,5.40
2024-03-26T00:40:03.573Z,5.90
2024-03-26T00:41:03.592Z,6.10
2024-03-26T00:42:03.547Z,6.00
2024-03-26T00:43:03.548Z,6.00
2024-03-26T00:44:03.531Z,5.80
2024-03-26T00:45:05.469Z,5.80
2024-03-26T00:46:03.508Z,5.70
2024-03-26T00:47:03.539Z,6.10
2024-03-26T00:48:03.522Z,6.10
2024-03-26T00:49:03.484Z,5.70
2024-03-26T00:50:03.472Z,6.10
2024-03-26T00:51:03.478Z,6.00
2024-03-26T00:52:03.449Z,5.70
2024-03-26T00:53:03.474Z,6.30
2024-03-26T00:54:03.432Z,6.00
2024-03-26T00:55:03.451Z,5.90
2024-03-26T00:56:03.413Z,6.10
2024-03-26T00:57:03.406Z,6.20
2024-03-26T00:58:03.397Z,5.50
2024-03-26T00:59:03.417Z,5.30
2024-03-26T01:00:03.368Z,5.40
2024-03-26T01:01:03.366Z,5.70
2024-03-26T01:02:03.355Z,5.80
2024-03-26T01:03:03.348Z,5.70
2024-03-26T01:04:03.329Z,5.20
2024-03-26T01:05:03.348Z,5.70
2024-03-26T01:06:03.296Z,5.60
2024-03-26T01:07:03.309Z,5.90
2024-03-26T01:08:03.296Z,6.00
2024-03-26T01:09:03.290Z,5.70
2024-03-26T01:10:03.286Z,6.00
2024-03-26T01:11:03.282Z,5.80
2024-03-26T01:12:03.242Z,5.90
2024-03-26T01:13:03.254Z,5.80
2024-03-26T01:14:03.239Z,5.80
2024-03-26T01:15:03.246Z,5.80
2024-03-26T01:16:03.220Z,5.70
2024-03-26T01:17:03.239Z,5.70
2024-03-26T01:18:03.195Z,5.70
2024-03-26T01:19:03.202Z,6.10
2024-03-26T01:20:03.158Z,5.60
2024-03-26T01:21:03.166Z,5.80
2024-03-26T01:22:03.184Z,5.30
2024-03-26T01:23:03.195Z,5.90
2024-03-26T01:24:03.128Z,6.00
2024-03-26T01:25:03.129Z,5.60
2024-03-26T01:26:03.106Z,5.60
2024-03-26T01:27:03.094Z,5.60
2024-03-26T01:28:03.094Z,5.70
2024-03-26T01:29:03.349Z,5.80
2024-03-26T01:30:03.092Z,5.80
2024-03-26T01:31:03.052Z,5.40
2024-03-26T01:32:03.041Z,6.00
2024-03-26T01:33:03.044Z,5.50
2024-03-26T01:34:03.040Z,5.80
2024-03-26T01:35:03.056Z,5.50
2024-03-26T01:36:03.012Z,5.40
2024-03-26T01:37:02.993Z,5.70
2024-03-26T01:38:02.988Z,5.40
2024-03-26T01:39:02.983Z,5.50
2024-03-26T01:40:02.959Z,5.30
2024-03-26T01:41:02.995Z,5.90
2024-03-26T01:42:02.935Z,6.00
2024-03-26T01:43:02.947Z,5.60
2024-03-26T01:44:02.975Z,5.40
2024-03-26T01:45:02.930Z,5.80
2024-03-26T01:46:02.930Z,5.50
2024-03-26T01:47:02.944Z,5.50
2024-03-26T01:48:02.875Z,5.60
2024-03-26T01:49:02.881Z,5.30
2024-03-26T01:50:02.869Z,5.30
2024-03-26T01:51:02.856Z,5.20
2024-03-26T01:52:02.854Z,5.60
2024-03-26T01:53:02.856Z,5.70
2024-03-26T01:54:02.828Z,5.70
2024-03-26T01:55:02.810Z,5.00
2024-03-26T01:56:02.805Z,5.30
2024-03-26T01:57:02.806Z,5.30
2024-03-26T01:58:02.793Z,5.50
2024-03-26T01:59:02.798Z,5.80
2024-03-26T02:00:02.774Z,5.80
2024-03-26T02:01:02.742Z,5.60
2024-03-26T02:02:02.750Z,5.60
2024-03-26T02:03:02.735Z,5.60
2024-03-26T02:04:02.714Z,5.90
2024-03-26T02:05:02.726Z,5.70
2024-03-26T02:06:02.717Z,5.30
2024-03-26T02:07:02.697Z,5.50
2024-03-26T02:08:02.713Z,5.50
2024-03-26T02:09:02.662Z,5.90
2024-03-26T02:10:02.681Z,5.60
2024-03-26T02:11:02.758Z,5.40
2024-03-26T02:12:02.642Z,5.80
2024-03-26T02:13:02.625Z,5.80
2024-03-26T02:14:02.621Z,5.40
2024-03-26T02:15:02.612Z,5.90
2024-03-26T02:16:02.591Z,5.80
2024-03-26T02:17:02.702Z,5.70
2024-03-26T02:18:02.590Z,5.60
2024-03-26T02:19:02.556Z,5.70
2024-03-26T02:20:02.583Z,5.40
2024-03-26T02:21:02.542Z,6.10
2024-03-26T02:22:02.535Z,5.80
2024-03-26T02:23:02.564Z,6.00
2024-03-26T02:24:02.519Z,6.10
2024-03-26T02:25:02.514Z,6.10
2024-03-26T02:26:02.519Z,6.10
2024-03-26T02:27:02.481Z,6.10
2024-03-26T02:28:02.484Z,6.00
2024-03-26T02:29:02.500Z,5.50
2024-03-26T02:30:02.471Z,5.40
2024-03-26T02:31:02.440Z,5.60
2024-03-26T02:32:02.451Z,6.20
2024-03-26T02:33:02.423Z,5.60
2024-03-26T02:34:02.423Z,5.70
2024-03-26T02:35:02.413Z,5.30
2024-03-26T02:36:02.418Z,5.60
2024-03-26T02:37:02.382Z,5.40
2024-03-26T02:38:02.406Z,5.80
2024-03-26T02:39:02.376Z,5.50
2024-03-26T02:40:02.343Z,5.80
2024-03-26T02:41:02.394Z,6.10
2024-03-26T02:42:02.337Z,5.80
2024-03-26T02:43:02.331Z,5.40
2024-03-26T02:44:02.308Z,5.50
2024-03-26T02:45:02.304Z,5.70
2024-03-26T02:46:02.294Z,5.40
2024-03-26T02:47:02.312Z,5.50
2024-03-26T02:48:02.296Z,5.30
2024-03-26T02:49:02.258Z,5.50
2024-03-26T02:50:02.287Z,5.60
2024-03-26T02:51:02.260Z,5.60
2024-03-26T02:52:02.247Z,5.10
2024-03-26T02:53:02.308Z,5.40
2024-03-26T02:54:02.207Z,5.50
2024-03-26T02:55:02.188Z,5.60
2024-03-26T02:56:02.189Z,5.50
2024-03-26T02:57:02.177Z,5.20
2024-03-26T02:58:02.186Z,5.70
2024-03-26T02:59:02.191Z,5.50
2024-03-26T03:00:02.167Z,5.30
2024-03-26T03:01:02.142Z,5.60
2024-03-26T03:02:02.143Z,6.00
2024-03-26T03:03:02.125Z,5.60
2024-03-26T03:04:02.129Z,5.30
2024-03-26T03:05:02.131Z,5.70
2024-03-26T03:06:02.111Z,5.50
2024-03-26T03:07:02.074Z,5.50
2024-03-26T03:08:02.083Z,5.50
2024-03-26T03:09:02.045Z,5.70
2024-03-26T03:10:02.049Z,5.10
2024-03-26T03:11:02.060Z,5.60
2024-03-26T03:12:02.023Z,5.30
2024-03-26T03:13:02.044Z,5.60
2024-03-26T03:14:02.027Z,5.70
2024-03-26T03:15:01.994Z,5.70
2024-03-26T03:16:01.989Z,5.60
2024-03-26T03:17:02.097Z,5.20
2024-03-26T03:18:01.966Z,5.20
2024-03-26T03:19:01.946Z,5.40
2024-03-26T03:20:01.967Z,5.50
2024-03-26T03:21:01.951Z,5.80
2024-03-26T03:22:01.950Z,5.60
2024-03-26T03:23:01.954Z,5.50
2024-03-26T03:24:01.923Z,5.40
2024-03-26T03:25:01.891Z,5.50
2024-03-26T03:26:01.882Z,5.50
2024-03-26T03:27:01.887Z,5.40
2024-03-26T03:28:01.869Z,5.40
2024-03-26T03:29:01.870Z,5.70
2024-03-26T03:30:01.861Z,5.50
2024-03-26T03:31:01.830Z,5.50
2024-03-26T03:32:01.832Z,5.30
2024-03-26T03:33:01.821Z,5.20
2024-03-26T03:34:01.808Z,5.20
2024-03-26T03:35:01.829Z,5.50
2024-03-26T03:36:01.780Z,5.40
2024-03-26T03:37:01.776Z,5.80
2024-03-26T03:38:01.762Z,5.50
2024-03-26T03:39:01.769Z,5.40
2024-03-26T03:40:01.741Z,5.20
2024-03-26T03:41:01.747Z,5.30
2024-03-26T03:42:01.729Z,5.40
2024-03-26T03:43:01.713Z,5.50
2024-03-26T03:44:01.706Z,5.50
2024-03-26T03:45:01.692Z,5.60
2024-03-26T03:46:01.708Z,5.80
2024-03-26T03:47:01.691Z,5.10
2024-03-26T03:48:01.654Z,5.40
2024-03-26T03:49:01.646Z,5.10
2024-03-26T03:50:01.703Z,5.40
2024-03-26T03:51:01.634Z,5.60
2024-03-26T03:52:01.622Z,5.00
2024-03-26T03:53:01.626Z,5.30
2024-03-26T03:54:01.609Z,5.30
2024-03-26T03:55:01.582Z,6.10
2024-03-26T03:56:01.607Z,5.40
2024-03-26T03:57:01.570Z,5.40
2024-03-26T03:58:01.564Z,5.60
2024-03-26T03:59:01.584Z,5.80
2024-03-26T04:00:01.586Z,5.70
2024-03-26T04:01:01.535Z,5.40
2024-03-26T04:02:01.552Z,5.60
2024-03-26T04:03:01.535Z,5.70
2024-03-26T04:04:01.523Z,5.40
2024-03-26T04:05:01.534Z,5.30
2024-03-26T04:06:01.473Z,5.80
2024-03-26T04:07:01.469Z,5.40
2024-03-26T04:08:01.463Z,5.30
2024-03-26T04:09:01.450Z,6.20
2024-03-26T04:10:01.486Z,5.50
2024-03-26T04:11:01.452Z,5.90
2024-03-26T04:12:01.458Z,5.70
2024-03-26T04:13:01.461Z,5.00
2024-03-26T04:14:01.435Z,5.60
2024-03-26T04:15:01.436Z,5.70
2024-03-26T04:16:01.407Z,5.60
2024-03-26T04:17:01.393Z,5.50
2024-03-26T04:18:01.411Z,5.60
2024-03-26T04:19:01.406Z,5.80
2024-03-26T04:20:01.377Z,5.70
2024-03-26T04:21:01.348Z,5.10
2024-03-26T04:22:01.347Z,5.90
2024-03-26T04:23:01.323Z,5.60
2024-03-26T04:24:01.331Z,5.60
2024-03-26T04:25:01.311Z,5.60
2024-03-26T04:26:02.218Z,5.40
2024-03-26T04:27:01.346Z,5.70
2024-03-26T04:28:01.258Z,5.70
2024-03-26T04:29:01.320Z,5.80
2024-03-26T04:30:01.231Z,5.60
2024-03-26T04:31:01.308Z,6.10
2024-03-26T04:32:01.208Z,6.00
2024-03-26T04:33:01.226Z,5.50
2024-03-26T04:34:01.191Z,5.80
2024-03-26T04:35:01.225Z,5.80
2024-03-26T04:36:01.186Z,5.80
2024-03-26T04:37:01.190Z,5.20
2024-03-26T04:38:01.150Z,5.50
2024-03-26T04:39:01.151Z,6.10
2024-03-26T04:40:01.145Z,5.30
2024-03-26T04:41:01.163Z,5.80
2024-03-26T04:42:01.108Z,6.00
2024-03-26T04:43:01.113Z,5.90
2024-03-26T04:44:01.112Z,6.00
2024-03-26T04:45:01.103Z,6.50
2024-03-26T04:46:01.070Z,6.30
2024-03-26T04:47:01.105Z,7.10
2024-03-26T04:48:01.090Z,6.50
2024-03-26T04:49:01.062Z,6.50
2024-03-26T04:50:01.061Z,6.40
2024-03-26T04:51:01.028Z,6.60
2024-03-26T04:52:01.011Z,6.40
2024-03-26T04:53:01.031Z,6.10
2024-03-26T04:54:01.003Z,6.30
2024-03-26T04:55:00.993Z,6.40
2024-03-26T04:56:00.981Z,6.50
2024-03-26T04:57:00.998Z,5.90
2024-03-26T04:58:00.957Z,6.40
2024-03-26T04:59:00.971Z,6.30
2024-03-26T05:00:00.951Z,6.20
2024-03-26T05:01:00.935Z,6.30
2024-03-26T05:02:00.917Z,6.00
2024-03-26T05:03:00.926Z,6.20
2024-03-26T05:04:00.894Z,5.70
2024-03-26T05:05:00.919Z,6.30
2024-03-26T05:06:00.880Z,6.10
2024-03-26T05:07:00.862Z,6.20
2024-03-26T05:08:00.881Z,5.90
2024-03-26T05:09:00.840Z,6.20
2024-03-26T05:10:00.845Z,6.50
2024-03-26T05:11:00.913Z,6.60
2024-03-26T05:12:00.842Z,6.70
2024-03-26T05:13:00.812Z,6.70
2024-03-26T05:14:00.810Z,6.30
2024-03-26T05:15:00.784Z,6.90
2024-03-26T05:16:03.762Z,6.40
2024-03-26T05:17:00.789Z,6.30
2024-03-26T05:18:00.773Z,6.00
2024-03-26T05:19:00.746Z,6.30
2024-03-26T05:20:00.741Z,6.20
2024-03-26T05:21:00.734Z,5.90
2024-03-26T05:22:00.712Z,5.90
2024-03-26T05:23:00.769Z,6.20
2024-03-26T05:24:00.686Z,6.00
2024-03-26T05:25:00.726Z,5.90
2024-03-26T05:26:00.698Z,5.60
2024-03-26T05:27:00.727Z,5.60
2024-03-26T05:28:00.691Z,6.00
2024-03-26T05:29:00.754Z,5.80
2024-03-26T05:30:00.662Z,6.30
2024-03-26T05:31:00.646Z,6.10
2024-03-26T05:32:00.630Z,6.10
2024-03-26T05:33:00.610Z,6.50
2024-03-26T05:34:00.609Z,6.10
2024-03-26T05:35:00.695Z,6.00
2024-03-26T05:36:00.568Z,6.40
2024-03-26T05:37:00.566Z,6.50
2024-03-26T05:38:00.560Z,6.20
2024-03-26T05:39:00.538Z,6.30
2024-03-26T05:40:00.540Z,6.10
2024-03-26T05:41:00.539Z,6.40
2024-03-26T05:42:00.521Z,6.10
2024-03-26T05:43:00.527Z,6.40
2024-03-26T05:44:00.487Z,6.80
2024-03-26T05:45:00.489Z,6.70
2024-03-26T05:46:00.480Z,6.50
2024-03-26T05:47:00.487Z,6.30
2024-03-26T05:48:00.444Z,6.50
2024-03-26T05:49:00.435Z,6.00
2024-03-26T05:50:00.444Z,6.80
2024-03-26T05:51:00.421Z,6.50
2024-03-26T05:52:00.409Z,6.40
2024-03-26T05:53:00.425Z,6.50
2024-03-26T05:54:00.390Z,6.50
2024-03-26T05:55:00.405Z,6.10
2024-03-26T05:56:00.366Z,6.70
2024-03-26T05:57:00.386Z,6.00
2024-03-26T05:58:00.346Z,6.10
2024-03-26T05:59:08.353Z,6.50
2024-03-26T06:00:00.370Z,6.30
2024-03-26T06:01:00.324Z,5.90
2024-03-26T06:02:00.319Z,6.20
2024-03-26T06:03:00.308Z,6.10
2024-03-26T06:04:02.539Z,6.40
2024-03-26T06:05:00.302Z,6.10
2024-03-26T06:06:00.263Z,5.80
2024-03-26T06:07:00.259Z,6.00
2024-03-26T06:08:00.246Z,6.40
2024-03-26T06:09:00.287Z,6.50
2024-03-26T06:10:00.250Z,6.10
2024-03-26T06:11:00.385Z,6.10
2024-03-26T06:12:00.219Z,6.10
2024-03-26T06:13:00.207Z,5.70
2024-03-26T06:14:00.205Z,5.70
2024-03-26T06:15:00.190Z,6.30
2024-03-26T06:16:00.174Z,6.00
2024-03-26T06:17:00.176Z,5.80
2024-03-26T06:18:00.153Z,6.00
2024-03-26T06:19:00.138Z,5.40
2024-03-26T06:20:00.187Z,5.80
2024-03-26T06:21:00.113Z,5.70
2024-03-26T06:22:00.159Z,5.80
2024-03-26T06:23:00.129Z,5.60
2024-03-26T06:24:00.080Z,6.20
2024-03-26T06:25:00.111Z,6.10
2024-03-26T06:26:00.065Z,6.30
2024-03-26T06:27:00.066Z,5.80
2024-03-26T06:28:00.049Z,5.60
2024-03-26T06:29:00.053Z,5.50
2024-03-26T06:30:00.041Z,5.80
2024-03-26T06:31:00.039Z,5.30
2024-03-26T06:32:00.002Z,5.80
2024-03-26T06:32:59.991Z,5.80
2024-03-26T06:33:59.986Z,6.00
2024-03-26T06:34:59.992Z,5.40
2024-03-26T06:35:59.963Z,5.80
2024-03-26T06:36:59.953Z,5.70
2024-03-26T06:37:59.965Z,5.80
2024-03-26T06:38:59.921Z,5.80
2024-03-26T06:39:59.921Z,5.60
2024-03-26T06:41:00.024Z,5.90
2024-03-26T06:41:59.927Z,5.80
2024-03-26T06:42:59.896Z,5.90
2024-03-26T06:43:59.885Z,5.60
2024-03-26T06:44:59.870Z,5.90
2024-03-26T06:45:59.874Z,6.00
2024-03-26T06:46:59.859Z,6.00
2024-03-26T06:47:59.842Z,6.20
2024-03-26T06:48:59.826Z,5.60
2024-03-26T06:49:59.828Z,5.90
2024-03-26T06:50:59.808Z,5.80
2024-03-26T06:51:59.803Z,5.80
2024-03-26T06:52:59.843Z,5.50
2024-03-26T06:53:59.782Z,5.70
2024-03-26T06:54:59.769Z,6.00
2024-03-26T06:55:59.763Z,5.40
2024-03-26T06:56:59.747Z,5.40
2024-03-26T06:57:59.736Z,5.90
2024-03-26T06:58:59.752Z,6.00
2024-03-26T06:59:59.729Z,5.70
2024-03-26T07:00:59.738Z,6.00
2024-03-26T07:01:59.698Z,5.70
2024-03-26T07:02:59.677Z,6.00
2024-03-26T07:03:59.681Z,5.60
2024-03-26T07:04:59.688Z,5.60
2024-03-26T07:05:59.672Z,6.20
2024-03-26T07:06:59.637Z,5.70
2024-03-26T07:07:59.632Z,5.70
2024-03-26T07:08:59.614Z,6.10
2024-03-26T07:09:59.617Z,6.10
2024-03-26T07:10:59.645Z,5.70
2024-03-26T07:11:59.592Z,5.80
2024-03-26T07:12:59.581Z,5.70
2024-03-26T07:13:59.587Z,5.80
2024-03-26T07:14:59.561Z,5.70
2024-03-26T07:15:59.550Z,5.10
2024-03-26T07:16:59.594Z,5.60
2024-03-26T07:17:59.526Z,5.60
2024-03-26T07:18:59.559Z,5.40
2024-03-26T07:19:59.516Z,6.00
2024-03-26T07:20:59.498Z,5.90
2024-03-26T07:21:59.482Z,5.60
2024-03-26T07:22:59.489Z,5.70
2024-03-26T07:23:59.470Z,5.20
2024-03-26T07:24:59.452Z,5.40
2024-03-26T07:25:59.463Z,5.60
2024-03-26T07:26:59.451Z,5.60
2024-03-26T07:27:59.421Z,5.60
2024-03-26T07:28:59.488Z,5.10
2024-03-26T07:29:59.420Z,5.60
2024-03-26T07:30:59.398Z,5.50
2024-03-26T07:31:59.372Z,5.50
2024-03-26T07:32:59.407Z,5.40
2024-03-26T07:33:59.354Z,5.60
2024-03-26T07:34:59.385Z,5.60
2024-03-26T07:35:59.343Z,5.30
2024-03-26T07:36:59.366Z,5.50
2024-03-26T07:37:59.320Z,5.50
2024-03-26T07:38:59.336Z,5.30
2024-03-26T07:39:59.292Z,5.20
2024-03-26T07:40:59.349Z,5.30
2024-03-26T07:41:59.291Z,5.00
2024-03-26T07:43:01.407Z,5.00
2024-03-26T07:43:59.297Z,5.50
2024-03-26T07:44:59.295Z,5.20
2024-03-26T07:45:59.234Z,5.50
2024-03-26T07:46:59.264Z,5.50
2024-03-26T07:47:59.267Z,5.50
2024-03-26T07:48:59.231Z,5.40
2024-03-26T07:49:59.251Z,5.30
2024-03-26T07:50:59.268Z,5.30
2024-03-26T07:51:59.179Z,5.40
2024-03-26T07:52:59.222Z,5.20
2024-03-26T07:53:59.203Z,5.60
2024-03-26T07:54:59.134Z,5.40
2024-03-26T07:55:59.129Z,5.50
2024-03-26T07:56:59.182Z,5.30
2024-03-26T07:57:59.134Z,5.20
2024-03-26T07:58:59.115Z,5.00
2024-03-26T07:59:59.119Z,4.70
2024-03-26T08:00:59.083Z,5.20
2024-03-26T08:01:59.166Z,4.90
2024-03-26T08:02:59.072Z,5.20
2024-03-26T08:03:59.053Z,5.00
2024-03-26T08:04:59.092Z,5.00
2024-03-26T08:05:59.032Z,4.80
2024-03-26T08:06:59.012Z,5.00
2024-03-26T08:07:59.006Z,5.50
2024-03-26T08:08:58.999Z,5.00
2024-03-26T08:09:59.048Z,5.50
2024-03-26T08:10:58.991Z,5.30
2024-03-26T08:11:59.119Z,5.20
2024-03-26T08:12:58.967Z,4.90
2024-03-26T08:13:58.969Z,4.80
2024-03-26T08:14:58.942Z,4.90
2024-03-26T08:15:58.921Z,4.80
2024-03-26T08:16:58.990Z,4.50
2024-03-26T08:17:59.552Z,4.40
2024-03-26T08:18:58.887Z,4.90
2024-03-26T08:19:58.940Z,4.40
2024-03-26T08:20:58.912Z,4.60
2024-03-26T08:21:58.886Z,4.50
2024-03-26T08:22:58.854Z,4.40
2024-03-26T08:23:58.926Z,4.30
2024-03-26T08:24:58.870Z,4.60
2024-03-26T08:25:58.809Z,4.40
2024-03-26T08:26:58.816Z,4.50
2024-03-26T08:27:58.819Z,4.60
2024-03-26T08:28:58.799Z,4.50
2024-03-26T08:29:58.799Z,4.80
2024-03-26T08:30:58.753Z,4.50
2024-03-26T08:31:58.834Z,4.80
2024-03-26T08:32:58.773Z,4.70
2024-03-26T08:33:58.719Z,4.80
2024-03-26T08:34:58.727Z,4.70
2024-03-26T08:35:58.728Z,4.40
2024-03-26T08:36:58.697Z,4.10
2024-03-26T08:37:58.683Z,4.40
2024-03-26T08:38:58.684Z,4.20
2024-03-26T08:39:58.656Z,4.50
2024-03-26T08:40:58.665Z,4.40
2024-03-26T08:41:58.800Z,4.70
2024-03-26T08:42:58.654Z,4.50
2024-03-26T08:43:58.659Z,4.30
2024-03-26T08:44:58.782Z,4.20
2024-03-26T08:45:58.598Z,4.50
2024-03-26T08:46:58.615Z,4.50
2024-03-26T08:47:58.647Z,4.30
2024-03-26T08:48:58.573Z,4.50
2024-03-26T08:49:58.550Z,4.60
2024-03-26T08:50:58.591Z,4.40
2024-03-26T08:51:58.536Z,4.60
2024-03-26T08:52:58.588Z,4.30
2024-03-26T08:53:58.533Z,4.40
2024-03-26T08:54:58.489Z,5.10
2024-03-26T08:56:05.391Z,4.50
2024-03-26T08:56:58.511Z,4.80
2024-03-26T08:57:58.468Z,4.50
2024-03-26T08:58:58.555Z,4.50
2024-03-26T08:59:58.489Z,4.70
2024-03-26T09:00:58.440Z,4.70
2024-03-26T09:01:58.419Z,4.50
2024-03-26T09:02:58.441Z,4.50
2024-03-26T09:03:58.396Z,4.30
2024-03-26T09:04:58.406Z,4.20
2024-03-26T09:05:58.426Z,4.60
2024-03-26T09:06:58.356Z,4.40
2024-03-26T09:07:58.401Z,4.20
2024-03-26T09:08:58.389Z,4.20
2024-03-26T09:09:58.339Z,4.30
2024-03-26T09:10:58.496Z,4.50
2024-03-26T09:11:58.355Z,4.40
2024-03-26T09:12:58.318Z,4.30
2024-03-26T09:13:58.299Z,4.50
2024-03-26T09:14:58.408Z,4.60
2024-03-26T09:15:58.261Z,4.40
2024-03-26T09:16:58.281Z,4.10
2024-03-26T09:17:58.294Z,4.90
2024-03-26T09:19:01.526Z,4.70
2024-03-26T09:19:58.229Z,4.30
2024-03-26T09:20:58.242Z,4.20
2024-03-26T09:21:58.221Z,4.30
2024-03-26T09:22:58.328Z,4.20
2024-03-26T09:23:58.220Z,4.30
2024-03-26T09:24:58.183Z,4.50
2024-03-26T09:25:58.161Z,4.50
2024-03-26T09:26:58.170Z,4.40
2024-03-26T09:27:58.138Z,4.40
2024-03-26T09:28:58.158Z,4.20
2024-03-26T09:29:58.168Z,4.60
2024-03-26T09:30:58.106Z,4.70
2024-03-26T09:31:58.120Z,4.70
2024-03-26T09:32:58.098Z,4.50
2024-03-26T09:33:58.089Z,4.20
2024-03-26T09:34:58.121Z,4.50
2024-03-26T09:35:58.104Z,4.50
2024-03-26T09:36:58.128Z,4.40
2024-03-26T09:37:58.040Z,4.50
2024-03-26T09:39:07.238Z,4.30
2024-03-26T09:39:58.026Z,4.50
2024-03-26T09:40:58.027Z,4.60
2024-03-26T09:41:58.018Z,4.70
2024-03-26T09:42:58.012Z,5.00
2024-03-26T09:43:58.734Z,4.40
2024-03-26T09:45:05.537Z,4.50
2024-03-26T09:45:57.968Z,4.50
2024-03-26T09:46:57.972Z,4.50
2024-03-26T09:47:57.948Z,4.60
2024-03-26T09:48:57.911Z,4.50
2024-03-26T09:49:57.904Z,4.60
2024-03-26T09:50:57.965Z,4.60
2024-03-26T09:51:57.893Z,4.80
2024-03-26T09:52:57.921Z,4.50
2024-03-26T09:53:57.889Z,4.90
2024-03-26T09:54:57.885Z,4.50
2024-03-26T09:55:57.845Z,4.70
2024-03-26T09:56:57.831Z,4.60
2024-03-26T09:57:57.819Z,4.70
2024-03-26T09:58:57.840Z,4.40
2024-03-26T09:59:57.832Z,4.40
2024-03-26T10:00:57.803Z,4.80
2024-03-26T10:01:57.791Z,4.50
2024-03-26T10:02:57.782Z,4.80
2024-03-26T10:03:57.778Z,4.60
2024-03-26T10:04:57.812Z,5.00
2024-03-26T10:05:57.754Z,4.40
2024-03-26T10:06:57.732Z,4.70
2024-03-26T10:07:57.725Z,4.70
2024-03-26T10:08:57.734Z,5.00
2024-03-26T10:09:57.691Z,5.20
2024-03-26T10:10:57.736Z,4.80
2024-03-26T10:11:57.712Z,4.80
2024-03-26T10:12:57.670Z,4.90
2024-03-26T10:13:57.670Z,5.10
2024-03-26T10:14:57.696Z,5.00
2024-03-26T10:15:57.658Z,5.20
2024-03-26T10:16:57.661Z,4.90
2024-03-26T10:17:57.681Z,5.10
2024-03-26T10:18:57.614Z,5.10
2024-03-26T10:19:57.624Z,4.70
2024-03-26T10:20:57.583Z,5.20
2024-03-26T10:21:57.567Z,5.00
2024-03-26T10:22:57.580Z,5.00
2024-03-26T10:23:57.551Z,5.10
2024-03-26T10:24:57.544Z,4.90
2024-03-26T10:25:57.579Z,4.80
2024-03-26T10:26:57.515Z,5.30
2024-03-26T10:27:57.517Z,4.90
2024-03-26T10:28:57.527Z,4.70
2024-03-26T10:29:57.500Z,5.30
2024-03-26T10:30:57.477Z,4.90
2024-03-26T10:31:57.465Z,4.80
2024-03-26T10:32:57.504Z,5.10
2024-03-26T10:33:57.439Z,5.10
2024-03-26T10:34:57.471Z,5.20
2024-03-26T10:35:57.431Z,5.40
2024-03-26T10:36:57.425Z,5.80
2024-03-26T10:38:01.561Z,5.10
2024-03-26T10:39:03.530Z,5.10
2024-03-26T10:39:57.404Z,5.20
2024-03-26T10:40:58.602Z,5.20
2024-03-26T10:41:57.434Z,5.00
2024-03-26T10:42:57.348Z,5.30
2024-03-26T10:43:57.348Z,5.10
2024-03-26T10:44:57.332Z,5.10
2024-03-26T10:46:03.527Z,5.20
2024-03-26T10:46:57.451Z,5.00
2024-03-26T10:47:57.327Z,5.50
2024-03-26T10:49:01.441Z,5.50
2024-03-26T10:49:57.276Z,5.40
2024-03-26T10:50:57.300Z,5.00
2024-03-26T10:51:57.258Z,5.20
2024-03-26T10:52:57.275Z,4.80
2024-03-26T10:53:57.263Z,5.10
2024-03-26T10:54:57.233Z,5.00
2024-03-26T10:55:57.218Z,5.20
2024-03-26T10:56:57.211Z,5.70
2024-03-26T10:57:57.411Z,5.30
2024-03-26T10:58:57.214Z,5.30
2024-03-26T10:59:57.176Z,5.30
2024-03-26T11:00:57.165Z,5.60
2024-03-26T11:01:57.164Z,5.20
2024-03-26T11:02:57.174Z,5.60
2024-03-26T11:03:57.129Z,5.70
2024-03-26T11:04:57.174Z,6.00
2024-03-26T11:05:57.122Z,5.80
2024-03-26T11:06:57.102Z,5.80
2024-03-26T11:07:57.096Z,5.90
2024-03-26T11:08:57.079Z,5.70
2024-03-26T11:09:57.216Z,5.90
2024-03-26T11:10:57.097Z,5.40
2024-03-26T11:11:57.054Z,5.60
2024-03-26T11:12:57.043Z,5.80
2024-03-26T11:13:57.054Z,5.50
2024-03-26T11:14:57.025Z,5.60
2024-03-26T11:15:57.003Z,5.30
2024-03-26T11:16:57.041Z,5.70
2024-03-26T11:17:56.978Z,5.90
2024-03-26T11:18:56.981Z,5.50
2024-03-26T11:19:57.017Z,5.30
2024-03-26T11:20:56.947Z,5.70
2024-03-26T11:21:56.952Z,5.00
2024-03-26T11:22:56.948Z,5.50
2024-03-26T11:23:56.920Z,5.60
2024-03-26T11:24:56.921Z,5.10
2024-03-26T11:25:56.893Z,5.60
2024-03-26T11:26:56.898Z,5.50
2024-03-26T11:27:56.877Z,5.90
2024-03-26T11:28:56.899Z,5.90
2024-03-26T11:29:56.859Z,5.70
2024-03-26T11:30:56.841Z,5.70
2024-03-26T11:31:56.871Z,5.50
2024-03-26T11:32:56.823Z,5.90
2024-03-26T11:33:56.814Z,5.60
2024-03-26T11:34:56.950Z,6.00
2024-03-26T11:35:56.777Z,5.70
2024-03-26T11:36:56.772Z,6.10
2024-03-26T11:37:58.993Z,6.00
2024-03-26T11:38:56.784Z,5.50
2024-03-26T11:39:56.746Z,5.70
2024-03-26T11:40:56.777Z,5.80
2024-03-26T11:41:56.724Z,5.70
2024-03-26T11:42:56.711Z,5.40
2024-03-26T11:43:56.692Z,6.20
2024-03-26T11:44:56.710Z,5.50
2024-03-26T11:45:56.669Z,5.20
2024-03-26T11:46:56.745Z,5.50
2024-03-26T11:47:56.690Z,5.40
2024-03-26T11:48:56.652Z,5.50
2024-03-26T11:49:56.625Z,5.10
2024-03-26T11:50:56.635Z,5.00
2024-03-26T11:51:56.617Z,5.00
2024-03-26T11:52:56.662Z,5.20
2024-03-26T11:53:56.600Z,5.20
2024-03-26T11:54:56.592Z,4.80
2024-03-26T11:55:56.564Z,4.80
2024-03-26T11:56:56.552Z,4.90
2024-03-26T11:57:56.575Z,4.80
2024-03-26T11:58:56.670Z,4.80
2024-03-26T11:59:56.554Z,4.90
2024-03-26T12:00:56.512Z,4.60
2024-03-26T12:01:56.509Z,4.80
2024-03-26T12:02:56.495Z,5.10
2024-03-26T12:03:56.484Z,5.10
2024-03-26T12:04:56.525Z,4.90
2024-03-26T12:05:56.471Z,5.10
2024-03-26T12:06:56.453Z,5.10
2024-03-26T12:07:56.462Z,5.10
2024-03-26T12:08:56.443Z,5.30
2024-03-26T12:09:56.426Z,5.00
2024-03-26T12:10:56.480Z,5.20
2024-03-26T12:11:56.382Z,4.80
2024-03-26T12:12:56.411Z,4.80
2024-03-26T12:13:56.413Z,4.80
2024-03-26T12:14:56.377Z,4.70
2024-03-26T12:15:56.357Z,4.60
2024-03-26T12:16:56.367Z,5.00
2024-03-26T12:17:56.353Z,4.50
2024-03-26T12:18:56.317Z,4.60
2024-03-26T12:19:56.298Z,4.70
2024-03-26T12:20:56.302Z,4.80
2024-03-26T12:21:56.282Z,4.60
2024-03-26T12:22:56.310Z,5.10
2024-03-26T12:23:56.263Z,4.80
2024-03-26T12:24:56.261Z,4.60
2024-03-26T12:25:56.249Z,5.00
2024-03-26T12:26:56.256Z,5.10
2024-03-26T12:27:56.212Z,5.10
2024-03-26T12:28:56.264Z,4.90
2024-03-26T12:29:56.190Z,4.90
2024-03-26T12:30:56.187Z,4.70
2024-03-26T12:31:56.178Z,4.50
2024-03-26T12:32:56.167Z,4.70
2024-03-26T12:33:56.148Z,4.80
2024-03-26T12:34:56.171Z,4.70
2024-03-26T12:35:56.120Z,4.80
2024-03-26T12:36:56.129Z,4.80
2024-03-26T12:37:56.129Z,4.40
2024-03-26T12:38:56.092Z,4.80
2024-03-26T12:39:56.092Z,4.40
2024-03-26T12:40:56.099Z,4.10
2024-03-26T12:41:56.078Z,4.40
2024-03-26T12:42:56.048Z,4.40
2024-03-26T12:43:56.049Z,4.50
2024-03-26T12:44:56.066Z,4.50
2024-03-26T12:45:56.015Z,4.50
2024-03-26T12:46:56.044Z,4.40
2024-03-26T12:47:56.000Z,4.70
2024-03-26T12:48:55.989Z,4.70
2024-03-26T12:49:55.997Z,4.30
2024-03-26T12:50:55.984Z,4.60
2024-03-26T12:51:55.952Z,4.50
2024-03-26T12:52:55.963Z,4.50
2024-03-26T12:53:55.921Z,4.50
2024-03-26T12:54:55.920Z,4.30
2024-03-26T12:55:55.913Z,4.40
2024-03-26T12:56:55.945Z,4.50
2024-03-26T12:57:55.899Z,4.40
2024-03-26T12:58:56.005Z,4.70
2024-03-26T12:59:55.888Z,4.50
2024-03-26T13:00:55.898Z,4.40
2024-03-26T13:01:55.849Z,4.50
2024-03-26T13:02:55.870Z,4.40
2024-03-26T13:03:55.823Z,4.80
2024-03-26T13:04:55.894Z,4.70
2024-03-26T13:05:55.812Z,4.40
2024-03-26T13:06:55.795Z,4.60
2024-03-26T13:07:56.811Z,4.30
2024-03-26T13:08:55.783Z,4.20
2024-03-26T13:09:55.765Z,4.30
2024-03-26T13:10:55.803Z,4.30
2024-03-26T13:11:55.771Z,3.90
2024-03-26T13:12:55.721Z,4.20
2024-03-26T13:13:55.716Z,3.90
2024-03-26T13:14:55.711Z,4.30
2024-03-26T13:15:55.734Z,4.60
2024-03-26T13:16:55.727Z,4.20
2024-03-26T13:17:55.683Z,4.10